sensor_id;sensor_type;location;lat;lon;timestamp;pressure;altitude;pressure_sealevel;temperature;humidity
46392;BME280;32098;49.448;7.904;2023-04-23T00:01:07;97508.03;;;11.28;83.64
46392;BME280;32098;49.448;7.904;2023-04-23T00:03:35;97514.72;;;11.30;83.54
46392;BME280;32098;49.448;7.904;2023-04-23T00:06:04;97497.00;;;11.24;83.82
46392;BME280;32098;49.448;7.904;2023-04-23T00:08:32;97504.78;;;11.26;84.12
46392;BME280;32098;49.448;7.904;2023-04-23T00:11:00;97512.00;;;11.25;84.64
46392;BME280;32098;49.448;7.904;2023-04-23T00:13:27;97466.34;;;11.05;84.26
46392;BME280;32098;49.448;7.904;2023-04-23T00:15:54;97506.09;;;11.23;84.45
46392;BME280;32098;49.448;7.904;2023-04-23T00:18:20;97504.44;;;11.17;84.62
46392;BME280;32098;49.448;7.904;2023-04-23T00:20:47;97492.53;;;11.08;84.81
46392;BME280;32098;49.448;7.904;2023-04-23T00:23:14;97511.75;;;11.27;84.82
46392;BME280;32098;49.448;7.904;2023-04-23T00:25:40;97512.00;;;11.25;84.56
46392;BME280;32098;49.448;7.904;2023-04-23T00:28:07;97504.53;;;11.27;84.19
46392;BME280;32098;49.448;7.904;2023-04-23T00:30:33;97506.09;;;11.23;83.91
46392;BME280;32098;49.448;7.904;2023-04-23T00:33:00;97504.47;;;11.22;83.73
46392;BME280;32098;49.448;7.904;2023-04-23T00:35:27;97501.59;;;11.29;83.87
46392;BME280;32098;49.448;7.904;2023-04-23T00:37:53;97501.25;;;11.20;84.19
46392;BME280;32098;49.448;7.904;2023-04-23T00:40:21;97504.44;;;11.17;84.55
46392;BME280;32098;49.448;7.904;2023-04-23T00:42:49;97504.66;;;11.15;84.70
46392;BME280;32098;49.448;7.904;2023-04-23T00:45:17;97511.94;;;11.20;84.46
46392;BME280;32098;49.448;7.904;2023-04-23T00:47:44;97511.94;;;11.20;84.57
46392;BME280;32098;49.448;7.904;2023-04-23T00:50:11;97511.94;;;11.20;84.22
46392;BME280;32098;49.448;7.904;2023-04-23T00:52:38;97512.44;;;11.17;84.74
46392;BME280;32098;49.448;7.904;2023-04-23T00:55:06;97513.25;;;11.18;84.64
46392;BME280;32098;49.448;7.904;2023-04-23T00:57:35;97511.13;;;11.20;84.30
46392;BME280;32098;49.448;7.904;2023-04-23T01:00:05;97519.16;;;11.20;84.40
46392;BME280;32098;49.448;7.904;2023-04-23T01:02:33;97505.19;;;11.12;84.36
46392;BME280;32098;49.448;7.904;2023-04-23T01:05:00;97519.59;;;11.11;84.49
46392;BME280;32098;49.448;7.904;2023-04-23T01:07:31;97523.31;;;11.10;84.80
46392;BME280;32098;49.448;7.904;2023-04-23T01:09:59;97524.88;;;11.06;84.29
46392;BME280;32098;49.448;7.904;2023-04-23T01:12:26;97527.75;;;11.00;84.78
46392;BME280;32098;49.448;7.904;2023-04-23T01:14:53;97520.78;;;10.99;84.77
46392;BME280;32098;49.448;7.904;2023-04-23T01:17:20;97501.34;;;10.82;84.84
46392;BME280;32098;49.448;7.904;2023-04-23T01:19:48;97525.63;;;11.02;84.52
46392;BME280;32098;49.448;7.904;2023-04-23T01:22:15;97534.88;;;10.94;84.71
46392;BME280;32098;49.448;7.904;2023-04-23T01:24:42;97527.16;;;10.98;84.54
46392;BME280;32098;49.448;7.904;2023-04-23T01:27:09;97526.66;;;11.01;84.45
46392;BME280;32098;49.448;7.904;2023-04-23T01:29:37;97522.97;;;11.02;84.39
46392;BME280;32098;49.448;7.904;2023-04-23T01:32:06;97533.56;;;10.97;84.36
46392;BME280;32098;49.448;7.904;2023-04-23T01:34:36;97521.81;;;10.98;84.26
46392;BME280;32098;49.448;7.904;2023-04-23T01:37:04;97526.00;;;10.89;83.86
46392;BME280;32098;49.448;7.904;2023-04-23T01:39:31;97528.41;;;10.90;83.83
46392;BME280;32098;49.448;7.904;2023-04-23T01:41:58;97521.25;;;10.96;83.11
46392;BME280;32098;49.448;7.904;2023-04-23T01:44:25;97513.56;;;10.99;82.60
46392;BME280;32098;49.448;7.904;2023-04-23T01:46:52;97460.41;;;10.55;82.88
46392;BME280;32098;49.448;7.904;2023-04-23T01:49:19;97527.03;;;10.88;83.27
46392;BME280;32098;49.448;7.904;2023-04-23T01:51:45;97527.78;;;10.83;83.22
46392;BME280;32098;49.448;7.904;2023-04-23T01:54:12;97529.09;;;10.81;82.81
46392;BME280;32098;49.448;7.904;2023-04-23T01:56:38;97524.88;;;10.85;82.99
46392;BME280;32098;49.448;7.904;2023-04-23T01:59:05;97520.03;;;10.82;83.05
46392;BME280;32098;49.448;7.904;2023-04-23T02:01:43;97534.81;;;10.89;81.97
46392;BME280;32098;49.448;7.904;2023-04-23T02:04:12;97533.44;;;10.87;81.87
46392;BME280;32098;49.448;7.904;2023-04-23T02:06:40;97539.53;;;10.82;82.29
46392;BME280;32098;49.448;7.904;2023-04-23T02:09:07;97542.38;;;10.76;82.55
46392;BME280;32098;49.448;7.904;2023-04-23T02:11:34;97548.53;;;10.76;82.19
46392;BME280;32098;49.448;7.904;2023-04-23T02:14:01;97547.78;;;10.81;82.25
46392;BME280;32098;49.448;7.904;2023-04-23T02:16:28;97549.84;;;10.74;81.65
46392;BME280;32098;49.448;7.904;2023-04-23T02:18:55;97554.94;;;10.75;81.63
46392;BME280;32098;49.448;7.904;2023-04-23T02:21:23;97552.28;;;10.75;81.67
46392;BME280;32098;49.448;7.904;2023-04-23T02:23:50;97544.19;;;10.70;81.96
46392;BME280;32098;49.448;7.904;2023-04-23T02:26:16;97539.41;;;10.72;82.45
46392;BME280;32098;49.448;7.904;2023-04-23T02:28:45;97537.22;;;10.69;82.11
46392;BME280;32098;49.448;7.904;2023-04-23T02:31:11;97545.50;;;10.68;81.61
46392;BME280;32098;49.448;7.904;2023-04-23T02:33:39;97536.91;;;10.66;81.64
46392;BME280;32098;49.448;7.904;2023-04-23T02:36:06;97548.47;;;10.71;81.95
46392;BME280;32098;49.448;7.904;2023-04-23T02:38:33;97542.81;;;10.68;82.42
46392;BME280;32098;49.448;7.904;2023-04-23T02:40:59;97551.47;;;10.75;82.12
46392;BME280;32098;49.448;7.904;2023-04-23T02:43:26;97549.53;;;10.70;81.90
46392;BME280;32098;49.448;7.904;2023-04-23T02:45:53;97546.59;;;10.72;81.65
46392;BME280;32098;49.448;7.904;2023-04-23T02:48:19;97543.69;;;10.73;81.49
46392;BME280;32098;49.448;7.904;2023-04-23T02:50:47;97546.06;;;10.70;82.29
46392;BME280;32098;49.448;7.904;2023-04-23T02:53:14;97548.72;;;10.70;81.92
46392;BME280;32098;49.448;7.904;2023-04-23T02:55:40;97547.03;;;10.64;81.70
46392;BME280;32098;49.448;7.904;2023-04-23T02:58:07;97547.34;;;10.67;81.97
46392;BME280;32098;49.448;7.904;2023-04-23T03:00:35;97551.31;;;10.65;81.92
46392;BME280;32098;49.448;7.904;2023-04-23T03:03:02;97543.31;;;10.65;81.49
46392;BME280;32098;49.448;7.904;2023-04-23T03:05:29;97539.00;;;10.64;81.38
46392;BME280;32098;49.448;7.904;2023-04-23T03:07:55;97528.03;;;10.60;81.22
46392;BME280;32098;49.448;7.904;2023-04-23T03:10:22;97536.59;;;10.62;81.67
46392;BME280;32098;49.448;7.904;2023-04-23T03:12:48;97526.00;;;10.50;81.82
46392;BME280;32098;49.448;7.904;2023-04-23T03:15:15;97544.06;;;10.60;81.42
46392;BME280;32098;49.448;7.904;2023-04-23T03:17:43;97536.28;;;10.59;81.53
46392;BME280;32098;49.448;7.904;2023-04-23T03:20:10;97523.94;;;10.53;81.22
46392;BME280;32098;49.448;7.904;2023-04-23T03:22:37;97554.22;;;10.63;81.14
46392;BME280;32098;49.448;7.904;2023-04-23T03:25:05;97549.63;;;10.59;81.25
46392;BME280;32098;49.448;7.904;2023-04-23T03:27:32;97545.09;;;10.59;81.66
46392;BME280;32098;49.448;7.904;2023-04-23T03:29:58;97546.59;;;10.50;81.66
46392;BME280;32098;49.448;7.904;2023-04-23T03:32:25;97551.34;;;10.48;81.72
46392;BME280;32098;49.448;7.904;2023-04-23T03:34:51;97555.97;;;10.53;82.17
46392;BME280;32098;49.448;7.904;2023-04-23T03:37:20;97548.44;;;10.49;82.15
46392;BME280;32098;49.448;7.904;2023-04-23T03:39:48;97553.69;;;10.44;81.87
46392;BME280;32098;49.448;7.904;2023-04-23T03:42:14;97552.34;;;10.42;81.85
46392;BME280;32098;49.448;7.904;2023-04-23T03:44:42;97534.31;;;10.32;82.05
46392;BME280;32098;49.448;7.904;2023-04-23T03:47:09;97544.53;;;10.40;81.74
46392;BME280;32098;49.448;7.904;2023-04-23T03:49:36;97552.00;;;10.38;81.90
46392;BME280;32098;49.448;7.904;2023-04-23T03:52:03;97548.78;;;10.36;82.43
46392;BME280;32098;49.448;7.904;2023-04-23T03:54:31;97558.56;;;10.31;82.65
46392;BME280;32098;49.448;7.904;2023-04-23T03:57:16;97562.03;;;10.31;83.27
46392;BME280;32098;49.448;7.904;2023-04-23T04:00:04;97558.31;;;10.32;82.93
46392;BME280;32098;49.448;7.904;2023-04-23T04:02:38;97536.00;;;10.22;82.66
46392;BME280;32098;49.448;7.904;2023-04-23T04:05:06;97554.50;;;10.28;82.70
46392;BME280;32098;49.448;7.904;2023-04-23T04:07:34;97564.44;;;10.33;82.82
46392;BME280;32098;49.448;7.904;2023-04-23T04:10:04;97559.38;;;10.31;82.86
46392;BME280;32098;49.448;7.904;2023-04-23T04:12:30;97552.47;;;10.35;82.10
46392;BME280;32098;49.448;7.904;2023-04-23T04:14:57;97552.81;;;10.39;81.98
46392;BME280;32098;49.448;7.904;2023-04-23T04:17:24;97561.31;;;10.36;82.27
46392;BME280;32098;49.448;7.904;2023-04-23T04:19:51;97557.81;;;10.35;81.88
46392;BME280;32098;49.448;7.904;2023-04-23T04:22:17;97557.34;;;10.38;81.75
46392;BME280;32098;49.448;7.904;2023-04-23T04:24:44;97558.06;;;10.34;82.35
46392;BME280;32098;49.448;7.904;2023-04-23T04:27:13;97554.78;;;10.27;82.27
46392;BME280;32098;49.448;7.904;2023-04-23T04:29:40;97560.91;;;10.27;81.81
46392;BME280;32098;49.448;7.904;2023-04-23T04:32:08;97561.41;;;10.24;82.56
46392;BME280;32098;49.448;7.904;2023-04-23T04:34:34;97556.63;;;10.26;82.07
46392;BME280;32098;49.448;7.904;2023-04-23T04:37:03;97551.22;;;10.21;82.11
46392;BME280;32098;49.448;7.904;2023-04-23T04:39:30;97550.72;;;10.24;82.29
46392;BME280;32098;49.448;7.904;2023-04-23T04:41:57;97546.91;;;10.20;82.14
46392;BME280;32098;49.448;7.904;2023-04-23T04:44:25;97550.25;;;10.27;81.74
46392;BME280;32098;49.448;7.904;2023-04-23T04:46:51;97553.22;;;10.31;81.86
46392;BME280;32098;49.448;7.904;2023-04-23T04:49:19;97546.50;;;10.28;81.59
46392;BME280;32098;49.448;7.904;2023-04-23T04:51:47;97553.00;;;10.32;81.09
46392;BME280;32098;49.448;7.904;2023-04-23T04:54:13;97543.91;;;10.33;80.72
46392;BME280;32098;49.448;7.904;2023-04-23T04:56:40;97549.72;;;10.30;81.08
46392;BME280;32098;49.448;7.904;2023-04-23T04:59:07;97538.03;;;10.31;81.36
46392;BME280;32098;49.448;7.904;2023-04-23T05:01:33;97481.34;;;9.91;80.97
46392;BME280;32098;49.448;7.904;2023-04-23T05:04:00;97525.00;;;10.18;80.80
46392;BME280;32098;49.448;7.904;2023-04-23T05:06:27;97529.38;;;10.24;80.87
46392;BME280;32098;49.448;7.904;2023-04-23T05:08:54;97526.16;;;10.22;81.12
46392;BME280;32098;49.448;7.904;2023-04-23T05:11:20;97530.50;;;10.28;80.59
46392;BME280;32098;49.448;7.904;2023-04-23T05:13:47;97524.69;;;10.31;80.19
46392;BME280;32098;49.448;7.904;2023-04-23T05:16:14;97529.53;;;10.34;79.81
46392;BME280;32098;49.448;7.904;2023-04-23T05:18:41;97518.53;;;10.31;80.32
46392;BME280;32098;49.448;7.904;2023-04-23T05:21:08;97540.97;;;10.52;79.75
46392;BME280;32098;49.448;7.904;2023-04-23T05:23:35;97543.88;;;10.67;78.75
46392;BME280;32098;49.448;7.904;2023-04-23T05:26:03;97543.25;;;10.60;78.80
46392;BME280;32098;49.448;7.904;2023-04-23T05:28:30;97548.03;;;10.79;78.45
46392;BME280;32098;49.448;7.904;2023-04-23T05:30:57;97543.38;;;11.13;78.18
46392;BME280;32098;49.448;7.904;2023-04-23T05:33:24;97547.00;;;11.45;76.78
46392;BME280;32098;49.448;7.904;2023-04-23T05:35:58;97542.91;;;11.64;74.90
46392;BME280;32098;49.448;7.904;2023-04-23T05:38:25;97538.81;;;11.84;74.43
46392;BME280;32098;49.448;7.904;2023-04-23T05:40:51;97534.78;;;11.81;73.48
46392;BME280;32098;49.448;7.904;2023-04-23T05:43:18;97537.72;;;11.80;73.91
46392;BME280;32098;49.448;7.904;2023-04-23T05:45:44;97534.50;;;11.77;74.17
46392;BME280;32098;49.448;7.904;2023-04-23T05:48:11;97546.28;;;11.82;75.04
46392;BME280;32098;49.448;7.904;2023-04-23T05:50:37;97539.97;;;11.93;74.48
46392;BME280;32098;49.448;7.904;2023-04-23T05:53:04;97534.84;;;11.91;73.93
46392;BME280;32098;49.448;7.904;2023-04-23T05:55:31;97542.88;;;11.91;73.93
46392;BME280;32098;49.448;7.904;2023-04-23T05:57:57;97552.94;;;12.11;74.31
46392;BME280;32098;49.448;7.904;2023-04-23T06:00:24;97567.06;;;12.70;73.83
46392;BME280;32098;49.448;7.904;2023-04-23T06:02:50;97562.28;;;13.39;70.59
46392;BME280;32098;49.448;7.904;2023-04-23T06:05:17;97545.00;;;14.07;68.10
46392;BME280;32098;49.448;7.904;2023-04-23T06:07:44;97483.75;;;14.29;66.41
46392;BME280;32098;49.448;7.904;2023-04-23T06:10:11;97544.06;;;15.02;63.98
46392;BME280;32098;49.448;7.904;2023-04-23T06:12:37;97512.19;;;14.75;62.94
46392;BME280;32098;49.448;7.904;2023-04-23T06:15:05;97530.47;;;14.78;63.02
46392;BME280;32098;49.448;7.904;2023-04-23T06:17:33;97532.91;;;14.55;63.74
46392;BME280;32098;49.448;7.904;2023-04-23T06:20:00;97536.13;;;14.21;63.91
46392;BME280;32098;49.448;7.904;2023-04-23T06:22:27;97535.06;;;14.02;64.09
46392;BME280;32098;49.448;7.904;2023-04-23T06:24:53;97529.13;;;13.65;64.85
46392;BME280;32098;49.448;7.904;2023-04-23T06:27:20;97549.72;;;13.49;65.11
46392;BME280;32098;49.448;7.904;2023-04-23T06:29:49;97546.19;;;13.34;65.98
46392;BME280;32098;49.448;7.904;2023-04-23T06:32:17;97551.75;;;13.12;66.66
46392;BME280;32098;49.448;7.904;2023-04-23T06:34:45;97547.91;;;12.93;67.69
46392;BME280;32098;49.448;7.904;2023-04-23T06:37:25;97551.91;;;12.85;68.41
46392;BME280;32098;49.448;7.904;2023-04-23T06:39:55;97539.75;;;12.68;68.76
46392;BME280;32098;49.448;7.904;2023-04-23T06:42:22;97540.22;;;12.60;68.76
46392;BME280;32098;49.448;7.904;2023-04-23T06:45:02;97540.47;;;12.58;69.24
46392;BME280;32098;49.448;7.904;2023-04-23T06:47:32;97543.03;;;12.43;69.62
46392;BME280;32098;49.448;7.904;2023-04-23T06:49:58;97541.13;;;12.38;70.02
46392;BME280;32098;49.448;7.904;2023-04-23T06:52:25;97539.53;;;12.37;70.41
46392;BME280;32098;49.448;7.904;2023-04-23T06:54:52;97534.97;;;12.38;69.75
46392;BME280;32098;49.448;7.904;2023-04-23T06:57:19;97532.63;;;12.47;69.90
46392;BME280;32098;49.448;7.904;2023-04-23T06:59:45;97515.25;;;12.49;69.70
46392;BME280;32098;49.448;7.904;2023-04-23T07:02:13;97524.41;;;12.58;70.08
46392;BME280;32098;49.448;7.904;2023-04-23T07:04:39;97523.72;;;12.78;69.86
46392;BME280;32098;49.448;7.904;2023-04-23T07:07:07;97525.84;;;13.38;68.10
46392;BME280;32098;49.448;7.904;2023-04-23T07:09:33;97512.53;;;13.98;65.58
46392;BME280;32098;49.448;7.904;2023-04-23T07:12:00;97509.78;;;14.44;64.36
46392;BME280;32098;49.448;7.904;2023-04-23T07:14:27;97500.09;;;14.73;61.32
46392;BME280;32098;49.448;7.904;2023-04-23T07:16:53;97499.66;;;15.15;60.10
46392;BME280;32098;49.448;7.904;2023-04-23T07:19:20;97491.47;;;15.84;59.30
46392;BME280;32098;49.448;7.904;2023-04-23T07:21:47;97486.22;;;16.31;56.64
46392;BME280;32098;49.448;7.904;2023-04-23T07:24:13;97495.88;;;16.32;56.05
46392;BME280;32098;49.448;7.904;2023-04-23T07:26:40;97496.78;;;16.23;56.13
46392;BME280;32098;49.448;7.904;2023-04-23T07:29:07;97491.63;;;15.97;55.43
46392;BME280;32098;49.448;7.904;2023-04-23T07:31:36;97496.47;;;15.56;56.45
46392;BME280;32098;49.448;7.904;2023-04-23T07:34:04;97497.63;;;15.40;57.16
46392;BME280;32098;49.448;7.904;2023-04-23T07:36:31;97495.09;;;15.15;57.98
46392;BME280;32098;49.448;7.904;2023-04-23T07:38:58;97476.13;;;14.81;59.05
46392;BME280;32098;49.448;7.904;2023-04-23T07:41:25;97492.59;;;14.65;59.59
46392;BME280;32098;49.448;7.904;2023-04-23T07:43:52;97495.81;;;14.57;58.93
46392;BME280;32098;49.448;7.904;2023-04-23T07:46:18;97481.59;;;14.36;59.79
46392;BME280;32098;49.448;7.904;2023-04-23T07:48:45;97482.72;;;14.25;59.39
46392;BME280;32098;49.448;7.904;2023-04-23T07:51:11;97489.97;;;13.99;60.65
46392;BME280;32098;49.448;7.904;2023-04-23T07:53:38;97489.97;;;13.84;60.57
46392;BME280;32098;49.448;7.904;2023-04-23T07:56:04;97496.97;;;13.80;61.00
46392;BME280;32098;49.448;7.904;2023-04-23T07:58:31;97493.72;;;13.73;61.51
46392;BME280;32098;49.448;7.904;2023-04-23T08:00:58;97494.78;;;13.67;61.91
46392;BME280;32098;49.448;7.904;2023-04-23T08:03:24;97484.06;;;13.67;62.34
46392;BME280;32098;49.448;7.904;2023-04-23T08:05:51;97476.53;;;13.74;62.04
46392;BME280;32098;49.448;7.904;2023-04-23T08:08:18;97478.41;;;13.84;62.03
46392;BME280;32098;49.448;7.904;2023-04-23T08:10:45;97462.06;;;13.70;61.57
46392;BME280;32098;49.448;7.904;2023-04-23T08:13:11;97480.56;;;13.92;61.73
46392;BME280;32098;49.448;7.904;2023-04-23T08:15:38;97478.41;;;13.94;61.73
46392;BME280;32098;49.448;7.904;2023-04-23T08:18:05;97472.28;;;13.93;61.88
46392;BME280;32098;49.448;7.904;2023-04-23T08:20:31;97477.63;;;14.03;61.45
46392;BME280;32098;49.448;7.904;2023-04-23T08:22:58;97470.34;;;14.09;61.59
46392;BME280;32098;49.448;7.904;2023-04-23T08:25:24;97466.84;;;14.23;60.94
46392;BME280;32098;49.448;7.904;2023-04-23T08:27:51;97444.69;;;14.77;60.26
46392;BME280;32098;49.448;7.904;2023-04-23T08:30:17;97448.78;;;15.23;57.99
46392;BME280;32098;49.448;7.904;2023-04-23T08:32:48;97454.16;;;15.23;56.93
46392;BME280;32098;49.448;7.904;2023-04-23T08:35:15;97448.81;;;15.18;56.91
46392;BME280;32098;49.448;7.904;2023-04-23T08:37:41;97454.63;;;15.35;57.22
46392;BME280;32098;49.448;7.904;2023-04-23T08:40:08;97455.66;;;15.83;56.60
46392;BME280;32098;49.448;7.904;2023-04-23T08:42:41;97453.34;;;16.00;55.50
46392;BME280;32098;49.448;7.904;2023-04-23T08:45:10;97449.91;;;15.95;54.93
46392;BME280;32098;49.448;7.904;2023-04-23T08:47:40;97446.78;;;16.11;54.97
46392;BME280;32098;49.448;7.904;2023-04-23T08:50:13;97452.25;;;16.30;53.91
46392;BME280;32098;49.448;7.904;2023-04-23T08:52:48;97454.31;;;16.43;53.10
46392;BME280;32098;49.448;7.904;2023-04-23T08:55:16;97445.66;;;16.46;53.48
46392;BME280;32098;49.448;7.904;2023-04-23T08:57:45;97446.00;;;16.63;53.18
46392;BME280;32098;49.448;7.904;2023-04-23T09:00:13;97440.94;;;16.80;52.72
46392;BME280;32098;49.448;7.904;2023-04-23T09:02:40;97441.81;;;16.52;52.20
46392;BME280;32098;49.448;7.904;2023-04-23T09:05:08;97439.78;;;16.39;51.83
46392;BME280;32098;49.448;7.904;2023-04-23T09:07:35;97433.69;;;16.29;52.73
46392;BME280;32098;49.448;7.904;2023-04-23T09:10:03;97410.97;;;16.11;52.96
46392;BME280;32098;49.448;7.904;2023-04-23T09:12:33;97438.66;;;16.45;52.74
46392;BME280;32098;49.448;7.904;2023-04-23T09:15:01;97428.00;;;16.59;51.78
46392;BME280;32098;49.448;7.904;2023-04-23T09:17:28;97435.63;;;16.75;51.82
46392;BME280;32098;49.448;7.904;2023-04-23T09:19:56;97436.28;;;16.86;52.20
46392;BME280;32098;49.448;7.904;2023-04-23T09:22:46;97434.25;;;16.97;51.80
46392;BME280;32098;49.448;7.904;2023-04-23T09:25:18;97432.22;;;16.89;51.30
46392;BME280;32098;49.448;7.904;2023-04-23T09:27:46;97430.53;;;16.93;50.83
46392;BME280;32098;49.448;7.904;2023-04-23T09:30:14;97420.84;;;16.92;50.86
46392;BME280;32098;49.448;7.904;2023-04-23T09:32:42;97420.06;;;16.67;50.82
46392;BME280;32098;49.448;7.904;2023-04-23T09:35:11;97414.41;;;16.69;50.67
46392;BME280;32098;49.448;7.904;2023-04-23T09:37:43;97417.59;;;16.47;51.29
46392;BME280;32098;49.448;7.904;2023-04-23T09:40:19;97394.47;;;16.17;51.68
46392;BME280;32098;49.448;7.904;2023-04-23T09:42:50;97412.41;;;16.27;50.85
46392;BME280;32098;49.448;7.904;2023-04-23T09:45:21;97407.41;;;16.68;50.99
46392;BME280;32098;49.448;7.904;2023-04-23T09:47:53;97403.38;;;16.65;50.51
46392;BME280;32098;49.448;7.904;2023-04-23T09:50:36;97400.44;;;16.62;50.22
46392;BME280;32098;49.448;7.904;2023-04-23T09:53:05;97390.97;;;16.64;49.67
46392;BME280;32098;49.448;7.904;2023-04-23T09:55:37;97385.19;;;16.76;49.48
46392;BME280;32098;49.448;7.904;2023-04-23T09:58:06;97385.88;;;16.63;49.86
46392;BME280;32098;49.448;7.904;2023-04-23T10:00:38;97379.72;;;16.81;49.13
46392;BME280;32098;49.448;7.904;2023-04-23T10:03:06;97384.06;;;16.58;49.85
46392;BME280;32098;49.448;7.904;2023-04-23T10:05:38;97371.53;;;16.67;49.27
46392;BME280;32098;49.448;7.904;2023-04-23T10:08:26;97376.03;;;16.53;48.73
46392;BME280;32098;49.448;7.904;2023-04-23T10:10:53;97358.34;;;16.66;50.02
46392;BME280;32098;49.448;7.904;2023-04-23T10:13:32;97361.94;;;16.61;49.12
46392;BME280;32098;49.448;7.904;2023-04-23T10:16:00;97367.78;;;16.45;49.19
46392;BME280;32098;49.448;7.904;2023-04-23T10:18:47;97357.63;;;16.13;50.99
46392;BME280;32098;49.448;7.904;2023-04-23T10:21:16;97368.59;;;16.16;50.76
46392;BME280;32098;49.448;7.904;2023-04-23T10:23:43;97367.41;;;16.28;50.32
46392;BME280;32098;49.448;7.904;2023-04-23T10:26:14;97348.03;;;16.26;50.59
46392;BME280;32098;49.448;7.904;2023-04-23T10:28:44;97367.31;;;16.38;50.70
46392;BME280;32098;49.448;7.904;2023-04-23T10:31:12;97355.31;;;16.25;49.62
46392;BME280;32098;49.448;7.904;2023-04-23T10:33:39;97361.69;;;16.58;50.09
46392;BME280;32098;49.448;7.904;2023-04-23T10:36:22;97353.91;;;16.75;49.27
46392;BME280;32098;49.448;7.904;2023-04-23T10:38:51;97344.59;;;16.67;49.64
46392;BME280;32098;49.448;7.904;2023-04-23T10:41:28;97337.66;;;16.61;47.91
46392;BME280;32098;49.448;7.904;2023-04-23T10:43:58;97337.59;;;16.66;47.41
46392;BME280;32098;49.448;7.904;2023-04-23T10:46:31;97322.97;;;16.91;47.45
46392;BME280;32098;49.448;7.904;2023-04-23T10:49:11;97318.66;;;17.09;46.80
46392;BME280;32098;49.448;7.904;2023-04-23T10:51:44;97321.69;;;17.21;46.64
46392;BME280;32098;49.448;7.904;2023-04-23T10:54:32;97316.97;;;17.13;46.87
46392;BME280;32098;49.448;7.904;2023-04-23T10:57:04;97311.38;;;16.91;46.44
46392;BME280;32098;49.448;7.904;2023-04-23T10:59:34;97312.25;;;16.86;45.98
46392;BME280;32098;49.448;7.904;2023-04-23T11:02:06;97304.44;;;16.84;45.54
46392;BME280;32098;49.448;7.904;2023-04-23T11:04:35;97304.44;;;16.84;46.40
46392;BME280;32098;49.448;7.904;2023-04-23T11:07:06;97288.94;;;16.76;46.71
46392;BME280;32098;49.448;7.904;2023-04-23T11:12:00;97291.75;;;16.48;47.33
46392;BME280;32098;49.448;7.904;2023-04-23T11:14:47;97292.56;;;16.48;47.27
46392;BME280;32098;49.448;7.904;2023-04-23T11:17:20;97293.06;;;16.50;47.74
46392;BME280;32098;49.448;7.904;2023-04-23T11:22:36;97282.78;;;16.52;47.25
46392;BME280;32098;49.448;7.904;2023-04-23T11:25:08;97283.38;;;16.68;47.28
46392;BME280;32098;49.448;7.904;2023-04-23T11:27:38;97288.31;;;16.79;46.69
46392;BME280;32098;49.448;7.904;2023-04-23T11:30:10;97280.00;;;16.95;46.22
46392;BME280;32098;49.448;7.904;2023-04-23T11:32:39;97256.84;;;16.94;45.40
46392;BME280;32098;49.448;7.904;2023-04-23T11:35:07;97264.41;;;16.92;45.46
46392;BME280;32098;49.448;7.904;2023-04-23T11:37:40;97261.78;;;17.05;45.67
46392;BME280;32098;49.448;7.904;2023-04-23T11:40:09;97252.69;;;17.01;46.12
46392;BME280;32098;49.448;7.904;2023-04-23T11:42:50;97257.63;;;16.94;45.99
46392;BME280;32098;49.448;7.904;2023-04-23T11:45:27;97244.34;;;17.16;44.71
46392;BME280;32098;49.448;7.904;2023-04-23T11:47:55;97248.78;;;17.26;43.95
46392;BME280;32098;49.448;7.904;2023-04-23T11:50:27;97247.84;;;17.49;44.04
46392;BME280;32098;49.448;7.904;2023-04-23T11:52:55;97231.63;;;17.17;42.97
46392;BME280;32098;49.448;7.904;2023-04-23T11:55:22;97203.69;;;16.94;43.55
46392;BME280;32098;49.448;7.904;2023-04-23T11:57:50;97239.63;;;17.22;42.53
46392;BME280;32098;49.448;7.904;2023-04-23T12:00:22;97238.19;;;17.29;43.09
46392;BME280;32098;49.448;7.904;2023-04-23T12:02:55;97231.34;;;17.18;43.78
46392;BME280;32098;49.448;7.904;2023-04-23T12:05:31;97197.53;;;17.07;44.13
46392;BME280;32098;49.448;7.904;2023-04-23T12:08:13;97218.84;;;17.09;42.92
46392;BME280;32098;49.448;7.904;2023-04-23T12:13:12;97203.56;;;17.18;43.34
46392;BME280;32098;49.448;7.904;2023-04-23T12:15:56;97198.16;;;17.18;43.53
46392;BME280;32098;49.448;7.904;2023-04-23T12:20:53;97170.81;;;17.24;44.11
46392;BME280;32098;49.448;7.904;2023-04-23T12:23:25;97193.31;;;17.47;44.29
46392;BME280;32098;49.448;7.904;2023-04-23T12:25:54;97171.25;;;17.31;44.35
46392;BME280;32098;49.448;7.904;2023-04-23T12:28:23;97178.72;;;17.34;44.68
46392;BME280;32098;49.448;7.904;2023-04-23T12:30:50;97127.38;;;16.94;43.38
46392;BME280;32098;49.448;7.904;2023-04-23T12:33:17;97171.13;;;16.91;43.75
46392;BME280;32098;49.448;7.904;2023-04-23T12:35:48;97173.72;;;16.96;43.67
46392;BME280;32098;49.448;7.904;2023-04-23T12:38:26;97171.06;;;16.77;43.61
46392;BME280;32098;49.448;7.904;2023-04-23T12:40:58;97165.22;;;16.89;44.05
46392;BME280;32098;49.448;7.904;2023-04-23T12:43:25;97165.34;;;16.97;43.44
46392;BME280;32098;49.448;7.904;2023-04-23T12:45:53;97155.63;;;16.82;43.65
46392;BME280;32098;49.448;7.904;2023-04-23T12:48:19;97164.69;;;16.87;43.60
46392;BME280;32098;49.448;7.904;2023-04-23T12:50:47;97159.13;;;16.83;43.32
46392;BME280;32098;49.448;7.904;2023-04-23T12:53:14;97153.47;;;16.98;42.49
46392;BME280;32098;49.448;7.904;2023-04-23T12:55:40;97155.97;;;17.22;42.80
46392;BME280;32098;49.448;7.904;2023-04-23T12:58:09;97150.75;;;17.30;41.65
46392;BME280;32098;49.448;7.904;2023-04-23T13:00:36;97145.44;;;17.25;42.05
46392;BME280;32098;49.448;7.904;2023-04-23T13:03:03;97137.97;;;17.36;42.19
46392;BME280;32098;49.448;7.904;2023-04-23T13:05:30;97140.47;;;17.46;41.43
46392;BME280;32098;49.448;7.904;2023-04-23T13:07:56;97127.53;;;17.70;40.94
46392;BME280;32098;49.448;7.904;2023-04-23T13:10:23;97122.91;;;17.84;41.65
46392;BME280;32098;49.448;7.904;2023-04-23T13:12:49;97116.84;;;17.65;41.28
46392;BME280;32098;49.448;7.904;2023-04-23T13:15:16;97112.56;;;17.64;41.33
46392;BME280;32098;49.448;7.904;2023-04-23T13:17:44;97117.66;;;17.52;40.83